Time;durP1;ratioP1;P1;durP2;ratioP2;P2;SDS_P1;SDS_P2;PMS_P1;PMS_P2;Temp;Humidity;BMP_temperature;BMP_pressure;BME280_temperature;BME280_humidity;BME280_pressure;Samples;Min_cycle;Max_cycle;Signal;HPM_P1;HPM_P2
2021/07/22 00:02:20;;;;;;;8.75;7.18;;;20.70;72.10;;;;;;5030167;28;20055;-65
2021/07/22 00:04:46;;;;;;;10.15;7.35;;;20.80;71.90;;;;;;5077568;28;20043;-65
2021/07/22 00:07:12;;;;;;;8.45;7.55;;;20.90;71.70;;;;;;5089715;28;20044;-65
2021/07/22 00:09:39;;;;;;;9.85;7.25;;;21.00;71.60;;;;;;5073121;28;20522;-65
2021/07/22 00:12:08;;;;;;;8.90;7.75;;;21.10;71.40;;;;;;5089810;28;20036;-65
2021/07/22 00:14:35;;;;;;;10.13;7.57;;;21.10;71.30;;;;;;5091093;28;20067;-66
2021/07/22 00:17:08;;;;;;;8.40;7.28;;;21.20;71.30;;;;;;5089523;28;20050;-65
2021/07/22 00:19:34;;;;;;;9.20;8.05;;;21.30;71.00;;;;;;5091392;28;20043;-65
2021/07/22 00:22:01;;;;;;;9.95;8.05;;;21.30;70.80;;;;;;5076050;28;20078;-65
2021/07/22 00:24:28;;;;;;;9.30;7.75;;;21.30;70.60;;;;;;5090980;28;20084;-66
2021/07/22 00:26:54;;;;;;;9.25;7.80;;;21.30;70.40;;;;;;5090404;28;20043;-66
2021/07/22 00:29:20;;;;;;;10.45;7.63;;;21.40;70.40;;;;;;5090739;28;20052;-65
2021/07/22 00:31:46;;;;;;;8.48;7.53;;;21.40;70.10;;;;;;5090037;28;20146;-65
2021/07/22 00:34:12;;;;;;;8.63;7.50;;;21.40;70.00;;;;;;5091426;28;20423;-66
2021/07/22 00:36:38;;;;;;;11.40;7.82;;;21.50;70.00;;;;;;5088206;28;20468;-66
2021/07/22 00:39:04;;;;;;;8.98;7.45;;;21.50;69.90;;;;;;5074206;28;20092;-65
2021/07/22 00:41:30;;;;;;;8.43;7.60;;;21.40;69.80;;;;;;5091165;28;20040;-65
2021/07/22 00:43:56;;;;;;;8.77;7.25;;;21.40;69.70;;;;;;5090625;28;20119;-65
2021/07/22 00:46:22;;;;;;;8.10;7.15;;;21.50;69.80;;;;;;5090238;28;20032;-65
2021/07/22 00:48:49;;;;;;;8.85;7.47;;;21.40;69.80;;;;;;5090309;28;20372;-65
2021/07/22 00:51:15;;;;;;;8.05;6.88;;;21.40;69.70;;;;;;5090778;28;20043;-65
2021/07/22 00:53:41;;;;;;;9.27;7.35;;;21.40;69.90;;;;;;5077691;28;20028;-59
2021/07/22 00:56:07;;;;;;;8.40;7.10;;;21.50;70.20;;;;;;5087994;28;20032;-59
2021/07/22 00:58:33;;;;;;;9.98;7.68;;;21.50;70.30;;;;;;5091407;28;20037;-59
2021/07/22 01:00:58;;;;;;;8.25;6.95;;;21.50;70.20;;;;;;5090847;28;20040;-59
2021/07/22 01:03:24;;;;;;;7.35;6.45;;;21.50;70.20;;;;;;5092064;28;20086;-59
2021/07/22 01:05:50;;;;;;;8.65;7.82;;;21.60;70.20;;;;;;5089967;28;20059;-59
2021/07/22 01:08:16;;;;;;;9.85;6.93;;;21.60;69.80;;;;;;5091339;28;20067;-59
2021/07/22 01:10:42;;;;;;;7.95;6.63;;;21.60;69.60;;;;;;5093079;28;20177;-59
2021/07/22 01:13:07;;;;;;;11.25;7.93;;;21.60;69.60;;;;;;5094736;28;20411;-58
2021/07/22 01:15:34;;;;;;;7.78;6.97;;;21.60;69.60;;;;;;5075634;28;20392;-59
2021/07/22 01:18:00;;;;;;;6.82;6.13;;;21.70;70.10;;;;;;5092634;28;20047;-59
2021/07/22 01:20:27;;;;;;;8.25;7.35;;;21.60;70.00;;;;;;5077207;28;20046;-58
2021/07/22 01:22:56;;;;;;;8.30;7.43;;;21.60;69.40;;;;;;5096370;28;20039;-59
2021/07/22 01:25:22;;;;;;;7.53;6.72;;;21.60;69.30;;;;;;5092517;28;20502;-59
2021/07/22 01:27:49;;;;;;;8.77;6.82;;;21.70;69.40;;;;;;5093457;28;20047;-58
2021/07/22 01:30:16;;;;;;;8.35;6.95;;;21.60;69.30;;;;;;5092564;28;20102;-58
2021/07/22 01:32:42;;;;;;;11.48;6.88;;;21.70;69.30;;;;;;5076391;28;20032;-59
2021/07/22 01:35:10;;;;;;;9.95;6.60;;;21.70;69.30;;;;;;5094005;28;20085;-59
2021/07/22 01:37:38;;;;;;;8.18;6.82;;;21.70;69.20;;;;;;5093836;28;20157;-59
2021/07/22 01:40:05;;;;;;;7.45;6.40;;;21.70;69.30;;;;;;5094296;28;21035;-58
2021/07/22 01:42:31;;;;;;;8.07;7.00;;;21.70;69.10;;;;;;5095933;28;20036;-58
2021/07/22 01:44:57;;;;;;;6.82;6.05;;;21.70;69.10;;;;;;5057470;28;20077;-58
2021/07/22 01:47:23;;;;;;;8.93;6.45;;;21.70;69.20;;;;;;5093481;28;20036;-58
2021/07/22 01:49:49;;;;;;;6.90;6.15;;;21.70;69.20;;;;;;5093703;28;20399;-58
2021/07/22 01:52:17;;;;;;;6.97;6.28;;;21.70;69.20;;;;;;5094235;28;20114;-59
2021/07/22 01:54:43;;;;;;;8.05;6.78;;;21.70;69.30;;;;;;5094112;28;20043;-58
2021/07/22 01:57:09;;;;;;;7.22;6.28;;;21.70;69.30;;;;;;5092692;28;20036;-59
2021/07/22 01:59:36;;;;;;;7.05;6.35;;;21.70;69.10;;;;;;5093461;28;21031;-58
2021/07/22 02:02:06;;;;;;;6.05;4.85;;;21.70;69.20;;;;;;5077413;28;20159;-59
2021/07/22 02:04:33;;;;;;;7.32;5.78;;;21.60;68.10;;;;;;5091443;28;20162;-58
2021/07/22 02:06:59;;;;;;;4.35;3.30;;;21.50;68.80;;;;;;5092191;28;20394;-58
2021/07/22 02:09:26;;;;;;;6.43;3.97;;;21.40;66.30;;;;;;5093446;28;20051;-59
2021/07/22 02:11:52;;;;;;;7.10;3.90;;;21.20;65.70;;;;;;5093922;28;20040;-59
2021/07/22 02:14:18;;;;;;;6.18;3.97;;;21.00;65.20;;;;;;5092001;28;20044;-59
2021/07/22 02:16:44;;;;;;;5.85;4.13;;;20.80;65.60;;;;;;5057950;28;20145;-59
2021/07/22 02:19:09;;;;;;;5.18;3.30;;;20.60;67.10;;;;;;5093706;28;20035;-58
2021/07/22 02:21:39;;;;;;;4.57;3.50;;;20.50;66.10;;;;;;5093989;28;20036;-59
2021/07/22 02:24:05;;;;;;;5.18;4.35;;;20.40;65.30;;;;;;5092222;28;20024;-58
2021/07/22 02:26:32;;;;;;;5.78;3.72;;;20.30;67.20;;;;;;5093070;28;20028;-58
2021/07/22 02:28:57;;;;;;;7.75;5.20;;;20.20;66.70;;;;;;5093124;28;20058;-59
2021/07/22 02:31:23;;;;;;;6.75;5.45;;;20.20;69.30;;;;;;5092310;28;20036;-58
2021/07/22 02:33:49;;;;;;;4.25;3.75;;;20.20;70.60;;;;;;5093223;28;20059;-59
2021/07/22 02:36:15;;;;;;;4.95;3.72;;;20.20;68.30;;;;;;5091999;28;20105;-58
2021/07/22 02:38:40;;;;;;;5.78;4.70;;;20.20;67.60;;;;;;5092969;28;20043;-58
2021/07/22 02:41:07;;;;;;;7.90;4.82;;;20.20;69.40;;;;;;5064551;28;20081;-58
2021/07/22 02:43:33;;;;;;;6.93;4.75;;;20.30;70.70;;;;;;5093269;28;20028;-58
2021/07/22 02:46:07;;;;;;;5.53;4.50;;;20.50;70.80;;;;;;5073847;28;21044;-58
2021/07/22 02:48:33;;;;;;;6.93;4.10;;;20.60;70.60;;;;;;5074937;28;20036;-58
2021/07/22 02:51:00;;;;;;;5.85;4.47;;;20.60;69.30;;;;;;5091583;28;20046;-58
2021/07/22 02:53:30;;;;;;;5.13;3.70;;;20.60;69.50;;;;;;5092922;28;20039;-58
2021/07/22 02:56:05;;;;;;;4.88;3.78;;;20.70;68.40;;;;;;5091759;28;20411;-58
2021/07/22 02:58:31;;;;;;;7.43;3.17;;;20.70;68.10;;;;;;5092934;28;20067;-58
2021/07/22 03:00:57;;;;;;;6.50;4.68;;;20.70;66.50;;;;;;5093442;28;20052;-58
2021/07/22 03:03:23;;;;;;;5.45;3.60;;;20.60;68.70;;;;;;5094037;28;20055;-59
2021/07/22 03:05:50;;;;;;;7.15;4.68;;;20.60;67.30;;;;;;5086097;28;22126;-59
2021/07/22 03:08:21;;;;;;;6.05;4.40;;;20.60;68.40;;;;;;5091683;28;20419;-58
2021/07/22 03:10:48;;;;;;;6.07;5.13;;;20.60;69.60;;;;;;5061742;28;20043;-59
2021/07/22 03:13:13;;;;;;;5.90;4.53;;;20.70;69.70;;;;;;5091580;28;20160;-58
2021/07/22 03:15:39;;;;;;;4.82;4.20;;;20.80;69.50;;;;;;5092624;28;20470;-59
2021/07/22 03:18:05;;;;;;;4.63;4.05;;;20.90;69.40;;;;;;5091577;28;20043;-59
2021/07/22 03:20:31;;;;;;;5.90;4.93;;;21.00;69.30;;;;;;5075325;28;20059;-59
2021/07/22 03:23:01;;;;;;;5.07;4.00;;;21.00;69.30;;;;;;5094048;28;20088;-59
2021/07/22 03:25:28;;;;;;;5.18;3.97;;;21.10;69.20;;;;;;5091278;28;20039;-59
2021/07/22 03:27:57;;;;;;;5.70;3.72;;;21.10;68.90;;;;;;5072610;28;20036;-59
2021/07/22 03:30:23;;;;;;;5.45;4.50;;;21.20;68.90;;;;;;5091603;28;20039;-59
2021/07/22 03:32:48;;;;;;;5.50;4.38;;;21.20;68.80;;;;;;5073721;28;20040;-59
2021/07/22 03:35:14;;;;;;;5.75;3.92;;;21.30;68.60;;;;;;5061685;28;20105;-59
2021/07/22 03:37:40;;;;;;;5.03;4.13;;;21.30;68.50;;;;;;5078750;28;20102;-59
2021/07/22 03:40:06;;;;;;;5.18;4.03;;;21.30;68.60;;;;;;5062753;28;20051;-59
2021/07/22 03:42:34;;;;;;;4.15;3.72;;;21.30;68.30;;;;;;5093668;28;20035;-59
2021/07/22 03:45:00;;;;;;;4.65;3.90;;;21.30;68.30;;;;;;5089442;28;20155;-59
2021/07/22 03:47:26;;;;;;;3.60;3.25;;;21.30;68.40;;;;;;5090849;28;20790;-59
2021/07/22 03:49:52;;;;;;;5.70;2.88;;;21.20;67.30;;;;;;5091062;28;20031;-59
2021/07/22 03:52:18;;;;;;;4.70;3.55;;;21.10;66.60;;;;;;5092492;28;20110;-59
2021/07/22 03:54:44;;;;;;;4.80;3.90;;;21.10;68.10;;;;;;5090333;28;20048;-59
2021/07/22 03:57:10;;;;;;;4.57;3.95;;;21.10;68.50;;;;;;5089818;28;20036;-59
2021/07/22 03:59:35;;;;;;;5.43;3.83;;;21.10;68.40;;;;;;5092215;28;20059;-59
2021/07/22 04:02:02;;;;;;;4.32;3.25;;;21.20;68.30;;;;;;5093297;28;20040;-59
2021/07/22 04:04:30;;;;;;;4.35;3.60;;;21.20;68.50;;;;;;5090352;28;20135;-60
2021/07/22 04:06:55;;;;;;;4.28;3.55;;;21.20;68.40;;;;;;5077985;28;20114;-59
2021/07/22 04:09:21;;;;;;;4.70;3.55;;;21.20;68.40;;;;;;5074694;28;20048;-58
2021/07/22 04:11:47;;;;;;;4.80;3.65;;;21.20;68.20;;;;;;5090747;28;20042;-58
2021/07/22 04:14:13;;;;;;;4.40;3.40;;;21.30;68.30;;;;;;5073665;28;20039;-58
2021/07/22 04:16:38;;;;;;;5.03;3.10;;;21.20;68.20;;;;;;5072747;28;20047;-58
2021/07/22 04:19:04;;;;;;;4.40;3.47;;;21.30;68.00;;;;;;5073751;28;20074;-58
2021/07/22 04:21:31;;;;;;;4.05;3.33;;;21.30;68.40;;;;;;5093098;28;20043;-59
2021/07/22 04:23:57;;;;;;;3.70;2.40;;;21.20;68.40;;;;;;5090296;28;20048;-59
2021/07/22 04:26:22;;;;;;;3.25;2.30;;;21.10;66.10;;;;;;5091858;28;20054;-59
2021/07/22 04:28:51;;;;;;;3.80;2.75;;;20.90;65.10;;;;;;5073076;28;20047;-59
2021/07/22 04:31:17;;;;;;;3.97;3.30;;;20.80;65.90;;;;;;5090842;28;20364;-58
2021/07/22 04:33:45;;;;;;;4.45;3.00;;;20.70;68.20;;;;;;5091550;28;20043;-58
2021/07/22 04:36:11;;;;;;;3.88;3.30;;;20.80;68.90;;;;;;5089914;28;20115;-59
2021/07/22 04:38:39;;;;;;;5.25;3.30;;;20.90;68.90;;;;;;5091244;28;20050;-58
2021/07/22 04:41:05;;;;;;;3.67;3.17;;;20.90;68.80;;;;;;5091519;28;20445;-58
2021/07/22 04:43:32;;;;;;;3.53;2.78;;;21.00;68.40;;;;;;5090812;28;20071;-58
2021/07/22 04:46:04;;;;;;;5.22;2.05;;;21.10;68.50;;;;;;5090262;28;20063;-58
2021/07/22 04:48:31;;;;;;;3.85;2.88;;;21.10;66.00;;;;;;5089623;28;20035;-58
2021/07/22 04:50:57;;;;;;;3.20;2.55;;;20.90;66.10;;;;;;5077678;28;20078;-58
2021/07/22 04:53:23;;;;;;;3.50;2.92;;;20.80;67.80;;;;;;5072444;28;20106;-58
2021/07/22 04:55:49;;;;;;;3.88;3.00;;;20.90;68.60;;;;;;5088051;28;20039;-58
2021/07/22 04:58:15;;;;;;;3.53;2.60;;;20.90;68.50;;;;;;5073673;28;20035;-58
2021/07/22 05:00:41;;;;;;;4.20;2.72;;;21.00;68.50;;;;;;5074473;28;20047;-58
2021/07/22 05:03:07;;;;;;;4.13;3.50;;;21.10;68.20;;;;;;5073061;28;20065;-58
2021/07/22 05:05:36;;;;;;;4.15;2.55;;;21.20;68.10;;;;;;5089840;28;20044;-58
2021/07/22 05:08:02;;;;;;;4.00;2.97;;;21.20;67.60;;;;;;5091177;28;20074;-58
2021/07/22 05:10:29;;;;;;;3.22;2.63;;;21.30;67.60;;;;;;5090031;28;20040;-58
2021/07/22 05:12:59;;;;;;;3.55;3.17;;;21.30;67.20;;;;;;5090587;28;20032;-58
2021/07/22 05:15:25;;;;;;;4.07;3.00;;;21.40;67.40;;;;;;5088264;28;20437;-58
2021/07/22 05:17:51;;;;;;;3.35;3.03;;;21.50;67.50;;;;;;5091338;28;20040;-58
2021/07/22 05:20:17;;;;;;;3.97;2.83;;;21.50;67.20;;;;;;5090798;28;20047;-58
2021/07/22 05:22:43;;;;;;;3.17;2.88;;;21.50;67.10;;;;;;5091311;28;20039;-58
2021/07/22 05:25:09;;;;;;;3.78;3.00;;;21.50;67.00;;;;;;5071493;28;20102;-57
2021/07/22 05:27:35;;;;;;;3.15;2.50;;;21.60;66.60;;;;;;5088739;28;20047;-58
2021/07/22 05:30:02;;;;;;;3.65;2.55;;;21.60;66.80;;;;;;5089716;28;20036;-58
2021/07/22 05:32:28;;;;;;;2.83;2.55;;;21.60;66.70;;;;;;5089939;28;20086;-58
2021/07/22 05:34:53;;;;;;;4.32;2.90;;;21.60;66.50;;;;;;5087265;28;20563;-58
2021/07/22 05:37:19;;;;;;;3.10;2.80;;;21.60;66.50;;;;;;5072523;28;20039;-58
2021/07/22 05:39:45;;;;;;;4.47;2.80;;;21.70;66.50;;;;;;5090913;28;20046;-58
2021/07/22 05:42:11;;;;;;;4.25;2.65;;;21.70;66.40;;;;;;5089498;28;20036;-58
2021/07/22 05:44:36;;;;;;;3.40;2.90;;;21.60;66.30;;;;;;5091246;28;20400;-58
2021/07/22 05:47:02;;;;;;;3.70;2.90;;;21.70;66.30;;;;;;5060823;28;20088;-58
2021/07/22 05:49:28;;;;;;;4.80;3.05;;;21.70;66.20;;;;;;5089984;28;20043;-58
2021/07/22 05:51:54;;;;;;;4.35;3.30;;;21.80;66.20;;;;;;5073378;28;20044;-58
2021/07/22 05:54:20;;;;;;;4.63;3.30;;;21.80;65.00;;;;;;5059122;28;20032;-58
2021/07/22 05:56:46;;;;;;;2.58;2.08;;;21.80;65.70;;;;;;5092653;28;20071;-58
2021/07/22 05:59:12;;;;;;;4.20;2.88;;;21.80;65.90;;;;;;5094748;28;20463;-58
2021/07/22 06:01:37;;;;;;;4.72;3.28;;;21.90;65.80;;;;;;5092185;28;20087;-58
2021/07/22 06:04:03;;;;;;;4.00;2.58;;;21.90;65.80;;;;;;5093395;28;20488;-58
2021/07/22 06:06:29;;;;;;;6.28;3.08;;;21.90;65.60;;;;;;5092428;28;22250;-58
2021/07/22 06:08:56;;;;;;;5.70;3.03;;;22.00;65.60;;;;;;5094568;28;20076;-60
2021/07/22 06:11:22;;;;;;;8.98;3.20;;;22.00;65.80;;;;;;5093572;28;20031;-59
2021/07/22 06:13:47;;;;;;;4.88;2.58;;;22.00;65.50;;;;;;5062939;28;20032;-61
2021/07/22 06:16:14;;;;;;;4.07;3.03;;;22.00;65.50;;;;;;5093540;28;20040;-58
2021/07/22 06:18:41;;;;;;;6.65;2.42;;;22.10;65.50;;;;;;5095463;28;20040;-58
2021/07/22 06:21:13;;;;;;;4.30;3.13;;;22.20;65.30;;;;;;5062424;28;20047;-58
2021/07/22 06:23:39;;;;;;;4.53;3.13;;;22.20;65.00;;;;;;5091158;28;20032;-58
2021/07/22 06:26:05;;;;;;;2.85;2.60;;;22.20;64.90;;;;;;5094645;28;20240;-59
2021/07/22 06:28:30;;;;;;;3.88;2.85;;;22.20;63.10;;;;;;5093638;28;20039;-58
2021/07/22 06:30:56;;;;;;;6.30;2.80;;;22.20;64.10;;;;;;5084628;28;20147;-58
2021/07/22 06:33:22;;;;;;;4.85;2.50;;;22.20;63.90;;;;;;5090229;28;20078;-58
2021/07/22 06:35:49;;;;;;;5.90;2.85;;;22.30;63.60;;;;;;5089103;28;20040;-58
2021/07/22 06:38:14;;;;;;;4.40;2.75;;;22.30;62.40;;;;;;5089277;28;20127;-58
2021/07/22 06:40:41;;;;;;;5.22;2.47;;;22.30;62.70;;;;;;5090602;28;20781;-58
2021/07/22 06:43:11;;;;;;;3.80;2.67;;;22.40;62.30;;;;;;5091194;28;20119;-58
2021/07/22 06:45:40;;;;;;;5.82;2.78;;;22.40;61.40;;;;;;5088380;28;20040;-58
2021/07/22 06:48:06;;;;;;;8.13;2.85;;;22.30;59.40;;;;;;5092684;28;20109;-58
2021/07/22 06:50:33;;;;;;;7.25;2.92;;;22.30;60.90;;;;;;5093405;28;20035;-59
2021/07/22 06:53:01;;;;;;;3.47;2.60;;;22.50;60.40;;;;;;5090348;28;20063;-59
2021/07/22 06:55:27;;;;;;;4.80;2.70;;;22.60;60.10;;;;;;5090812;28;20145;-58
2021/07/22 06:57:53;;;;;;;10.95;3.15;;;22.80;59.80;;;;;;5090900;28;20392;-58
2021/07/22 07:00:19;;;;;;;2.88;2.28;;;23.00;59.30;;;;;;5093700;28;20036;-58
2021/07/22 07:02:45;;;;;;;4.30;2.63;;;23.30;57.50;;;;;;5090695;28;20046;-58
2021/07/22 07:05:11;;;;;;;6.38;3.08;;;23.30;57.60;;;;;;5092478;28;20057;-60
2021/07/22 07:07:37;;;;;;;4.65;2.80;;;23.30;56.60;;;;;;5092427;28;20044;-60
2021/07/22 07:10:03;;;;;;;4.95;2.42;;;23.30;56.70;;;;;;5091128;28;20117;-61
2021/07/22 07:12:29;;;;;;;4.45;2.58;;;23.30;56.00;;;;;;5062119;28;20036;-60
2021/07/22 07:14:54;;;;;;;15.90;10.93;;;23.30;55.30;;;;;;5091486;28;20082;-60
2021/07/22 07:17:20;;;;;;;15.00;11.40;;;23.20;55.50;;;;;;5063173;28;20412;-60
2021/07/22 07:19:46;;;;;;;8.60;6.10;;;23.30;55.80;;;;;;5074683;28;20415;-59
2021/07/22 07:22:11;;;;;;;9.93;4.50;;;23.50;55.00;;;;;;5093810;28;20031;-64
2021/07/22 07:24:37;;;;;;;7.00;4.20;;;23.50;54.20;;;;;;5093459;28;20761;-66
2021/07/22 07:27:06;;;;;;;7.43;3.85;;;23.80;53.30;;;;;;5075917;28;20039;-65
2021/07/22 07:29:32;;;;;;;5.07;3.80;;;24.10;52.90;;;;;;5073785;28;20059;-67
2021/07/22 07:31:59;;;;;;;6.05;3.00;;;24.40;52.30;;;;;;5090175;28;20127;-61
2021/07/22 07:34:35;;;;;;;5.35;2.70;;;24.60;49.70;;;;;;5088670;28;20024;-62
2021/07/22 07:37:01;;;;;;;6.18;3.38;;;24.70;48.50;;;;;;5088233;28;20044;-61
2021/07/22 07:39:27;;;;;;;5.13;2.10;;;24.70;49.20;;;;;;5092142;28;20050;-61
2021/07/22 07:41:52;;;;;;;2.97;1.88;;;24.80;47.90;;;;;;5057747;28;20570;-61
2021/07/22 07:44:18;;;;;;;3.80;2.25;;;24.90;47.90;;;;;;5086983;28;20040;-61
2021/07/22 07:46:44;;;;;;;4.43;2.00;;;25.00;47.20;;;;;;5090274;28;20071;-61
2021/07/22 07:49:09;;;;;;;3.88;3.20;;;25.00;46.60;;;;;;5073151;28;20036;-61
2021/07/22 07:51:35;;;;;;;5.75;2.20;;;25.00;47.70;;;;;;5074462;28;20145;-61
2021/07/22 07:54:01;;;;;;;5.55;2.25;;;25.20;47.90;;;;;;5091849;28;20123;-68
2021/07/22 07:56:27;;;;;;;2.80;1.40;;;25.40;48.20;;;;;;5089691;28;20490;-67
2021/07/22 07:58:53;;;;;;;4.80;2.50;;;25.60;46.60;;;;;;5062046;28;20062;-61
2021/07/22 08:01:20;;;;;;;4.07;2.25;;;25.60;46.70;;;;;;5091626;28;20032;-61
2021/07/22 08:03:45;;;;;;;5.03;2.35;;;25.50;47.60;;;;;;5092829;28;20119;-60
2021/07/22 08:06:11;;;;;;;5.82;2.80;;;25.30;48.00;;;;;;5089744;28;20107;-60
2021/07/22 08:08:37;;;;;;;4.57;2.50;;;25.20;48.40;;;;;;5089395;28;20117;-61
2021/07/22 08:11:03;;;;;;;4.97;2.58;;;25.10;48.30;;;;;;5059803;28;20046;-61
2021/07/22 08:13:29;;;;;;;4.43;2.65;;;25.10;49.00;;;;;;5073812;28;20114;-61
2021/07/22 08:15:55;;;;;;;3.67;2.13;;;25.30;47.60;;;;;;5072784;28;20035;-61
2021/07/22 08:18:20;;;;;;;5.88;2.78;;;25.40;46.80;;;;;;5088579;28;20522;-68
2021/07/22 08:20:46;;;;;;;3.83;2.65;;;25.50;45.60;;;;;;5090865;28;20040;-67
2021/07/22 08:23:12;;;;;;;3.50;1.83;;;25.50;47.10;;;;;;5093110;28;20476;-68
2021/07/22 08:25:38;;;;;;;3.95;1.95;;;25.50;45.90;;;;;;5089668;28;20476;-68
2021/07/22 08:28:04;;;;;;;2.85;1.20;;;25.40;46.40;;;;;;5090180;28;20616;-68
2021/07/22 08:30:30;;;;;;;3.67;1.85;;;25.20;45.30;;;;;;5090751;28;20039;-67
2021/07/22 08:32:56;;;;;;;3.55;1.77;;;25.20;45.30;;;;;;5091670;28;20098;-68
2021/07/22 08:35:22;;;;;;;4.82;2.10;;;25.20;45.00;;;;;;5050588;28;20404;-68
2021/07/22 08:37:48;;;;;;;4.90;1.75;;;25.20;45.10;;;;;;5090215;28;20079;-68
2021/07/22 08:40:14;;;;;;;5.30;1.50;;;25.20;45.00;;;;;;5091768;28;20089;-68
2021/07/22 08:42:44;;;;;;;3.53;1.50;;;24.90;45.00;;;;;;5090388;28;20043;-67
2021/07/22 08:45:11;;;;;;;2.50;1.40;;;24.60;45.60;;;;;;5090153;28;20040;-67
2021/07/22 08:47:37;;;;;;;3.60;1.50;;;24.40;46.20;;;;;;5090198;28;20062;-67
2021/07/22 08:50:07;;;;;;;3.45;1.60;;;24.40;46.00;;;;;;5061526;28;20028;-68
2021/07/22 08:52:33;;;;;;;4.50;1.98;;;24.60;46.30;;;;;;5090180;28;20124;-67
2021/07/22 08:54:59;;;;;;;3.65;1.60;;;24.80;47.00;;;;;;5089061;28;20929;-67
2021/07/22 08:57:32;;;;;;;2.95;1.75;;;25.10;46.40;;;;;;5091001;28;20075;-67
2021/07/22 09:00:00;;;;;;;3.72;1.45;;;25.40;45.60;;;;;;5092046;28;20039;-68
2021/07/22 09:02:31;;;;;;;4.05;1.30;;;25.60;45.70;;;;;;5088563;28;20097;-68
2021/07/22 09:04:59;;;;;;;5.50;1.50;;;25.70;45.00;;;;;;5091165;28;20507;-68
2021/07/22 09:07:26;;;;;;;3.53;1.52;;;25.70;44.30;;;;;;5089661;28;20134;-68
2021/07/22 09:10:04;;;;;;;2.70;1.10;;;25.80;44.40;;;;;;5091367;28;20410;-68
2021/07/22 09:12:36;;;;;;;3.17;1.60;;;25.90;44.40;;;;;;5088584;28;20480;-68
2021/07/22 09:15:03;;;;;;;5.57;1.35;;;25.90;44.20;;;;;;5089119;28;20119;-68
2021/07/22 09:17:29;;;;;;;3.65;1.60;;;25.60;44.30;;;;;;5090494;28;20432;-68
2021/07/22 09:19:55;;;;;;;3.17;1.35;;;25.60;44.20;;;;;;5061322;28;20131;-68
2021/07/22 09:22:32;;;;;;;1.83;1.23;;;25.50;43.80;;;;;;5089664;28;20088;-68
2021/07/22 09:24:58;;;;;;;3.83;1.95;;;25.30;44.10;;;;;;5088328;28;20122;-68
2021/07/22 09:27:43;;;;;;;2.15;1.10;;;25.30;45.60;;;;;;5055642;28;20158;-68
2021/07/22 09:30:16;;;;;;;2.58;1.52;;;25.10;44.20;;;;;;5093549;28;20130;-68
2021/07/22 09:32:44;;;;;;;6.50;2.20;;;25.00;44.70;;;;;;5047297;28;20040;-68
2021/07/22 09:35:13;;;;;;;3.53;1.70;;;25.10;44.60;;;;;;5092069;28;20045;-68
2021/07/22 09:37:48;;;;;;;4.82;1.35;;;25.20;44.60;;;;;;5075822;28;20035;-68
2021/07/22 09:40:26;;;;;;;2.45;1.10;;;25.30;44.50;;;;;;5063624;28;20400;-68
2021/07/22 09:42:54;;;;;;;2.50;1.10;;;25.20;45.10;;;;;;5091709;28;20059;-68
2021/07/22 09:45:27;;;;;;;2.53;1.45;;;25.10;44.50;;;;;;5092801;28;20542;-68
2021/07/22 09:47:54;;;;;;;4.25;1.35;;;25.20;45.30;;;;;;5093187;28;20069;-67
2021/07/22 09:50:22;;;;;;;12.60;9.25;;;25.40;45.20;;;;;;5094086;28;20063;-66
2021/07/22 09:53:04;;;;;;;43.40;29.73;;;25.60;45.10;;;;;;5092669;28;20982;-66
2021/07/22 09:55:35;;;;;;;6.80;3.17;;;25.90;45.10;;;;;;5092920;28;20040;-67
2021/07/22 09:58:06;;;;;;;6.22;3.42;;;26.10;44.30;;;;;;5094999;28;20036;-66
2021/07/22 10:00:34;;;;;;;4.15;2.80;;;26.30;44.30;;;;;;5091788;28;20047;-66
2021/07/22 10:03:02;;;;;;;4.47;2.20;;;26.30;44.00;;;;;;5092332;28;20036;-67
2021/07/22 10:05:37;;;;;;;2.20;1.30;;;26.30;43.70;;;;;;5091618;28;20032;-66
2021/07/22 10:08:05;;;;;;;3.05;1.30;;;26.30;43.40;;;;;;5087318;28;20035;-67
2021/07/22 10:10:31;;;;;;;3.22;1.38;;;26.30;43.50;;;;;;5088064;28;20064;-67
2021/07/22 10:12:59;;;;;;;3.40;1.42;;;26.40;43.20;;;;;;5065111;28;20220;-68
2021/07/22 10:15:31;;;;;;;3.80;1.50;;;26.30;42.80;;;;;;5079030;28;20036;-67
2021/07/22 10:17:58;;;;;;;4.15;1.90;;;26.30;43.50;;;;;;5089699;28;20145;-67
2021/07/22 10:20:29;;;;;;;3.38;1.35;;;26.10;43.50;;;;;;5092098;28;20036;-67
2021/07/22 10:22:55;;;;;;;2.95;1.27;;;26.00;43.20;;;;;;5092099;28;20037;-67
2021/07/22 10:25:21;;;;;;;4.35;1.58;;;26.00;43.90;;;;;;5088784;28;20040;-67
2021/07/22 10:27:47;;;;;;;3.40;1.23;;;25.90;43.50;;;;;;5090187;28;20540;-67
2021/07/22 10:30:18;;;;;;;3.25;1.10;;;26.00;43.30;;;;;;5089438;28;20067;-67
2021/07/22 10:32:48;;;;;;;5.90;1.10;;;25.90;43.60;;;;;;5088391;28;20046;-67
2021/07/22 10:35:39;;;;;;;3.83;1.45;;;25.80;43.50;;;;;;5089703;28;20036;-68
2021/07/22 10:38:10;;;;;;;2.70;1.38;;;25.90;44.20;;;;;;5086876;28;20404;-68
2021/07/22 10:40:46;;;;;;;3.95;1.50;;;25.90;43.80;;;;;;5061941;28;20095;-61
2021/07/22 10:43:40;;;;;;;2.75;1.92;;;25.80;43.50;;;;;;5090280;28;20067;-66
2021/07/22 10:46:08;;;;;;;6.80;2.83;;;25.70;43.90;;;;;;5088556;28;20181;-66
2021/07/22 10:48:34;;;;;;;4.00;1.92;;;25.50;43.80;;;;;;5088594;28;20069;-67
2021/07/22 10:51:01;;;;;;;4.50;1.83;;;25.40;43.80;;;;;;5092890;28;20071;-66
2021/07/22 10:53:39;;;;;;;4.88;1.30;;;25.50;44.00;;;;;;5089887;28;20170;-67
2021/07/22 10:56:13;;;;;;;5.60;1.30;;;25.50;43.80;;;;;;5090346;28;20034;-67
2021/07/22 10:58:38;;;;;;;5.03;1.60;;;25.40;43.90;;;;;;5089600;28;20043;-67
2021/07/22 11:01:07;;;;;;;3.83;1.83;;;25.40;44.30;;;;;;5072535;28;20040;-67
2021/07/22 11:03:35;;;;;;;2.85;1.45;;;25.50;44.00;;;;;;5089896;28;20035;-67
2021/07/22 11:06:08;;;;;;;3.72;1.23;;;25.70;44.00;;;;;;5088572;28;20039;-67
2021/07/22 11:08:38;;;;;;;2.78;1.65;;;25.80;43.50;;;;;;5089752;28;20104;-66
2021/07/22 11:11:07;;;;;;;4.75;1.30;;;25.80;43.60;;;;;;5092305;28;20036;-68
2021/07/22 11:13:36;;;;;;;3.75;1.15;;;25.70;43.30;;;;;;5089176;28;20051;-69
2021/07/22 11:16:06;;;;;;;3.25;1.20;;;25.50;43.60;;;;;;5088603;28;20036;-69
2021/07/22 11:18:44;;;;;;;3.20;1.08;;;25.30;43.60;;;;;;5088296;28;20118;-69
2021/07/22 11:21:30;;;;;;;3.88;1.90;;;25.00;43.60;;;;;;5070053;28;20119;-69
2021/07/22 11:24:16;;;;;;;3.08;1.40;;;24.70;43.80;;;;;;5061791;28;20056;-69
2021/07/22 11:26:43;;;;;;;2.38;1.30;;;24.60;44.60;;;;;;5087931;28;20731;-69
2021/07/22 11:29:10;;;;;;;4.20;1.08;;;24.40;45.00;;;;;;5044973;28;20071;-69
2021/07/22 11:31:41;;;;;;;1.70;1.08;;;24.30;45.10;;;;;;5063721;28;20515;-70
2021/07/22 11:34:06;;;;;;;3.42;1.15;;;24.20;44.80;;;;;;5088989;28;20039;-69
2021/07/22 11:36:33;;;;;;;0.90;0.60;;;24.10;45.20;;;;;;5071311;28;20039;-69
2021/07/22 11:38:59;;;;;;;1.60;0.80;;;24.00;45.40;;;;;;5089009;28;20181;-70
2021/07/22 11:41:25;;;;;;;4.25;0.95;;;23.90;45.50;;;;;;5086275;28;20074;-70
2021/07/22 11:43:56;;;;;;;3.10;1.02;;;23.80;46.10;;;;;;5089297;28;20051;-69
2021/07/22 11:46:44;;;;;;;3.55;1.13;;;23.80;46.10;;;;;;5088958;28;20061;-69
2021/07/22 11:49:17;;;;;;;4.22;2.03;;;23.90;45.70;;;;;;5088234;28;20123;-70
2021/07/22 11:51:48;;;;;;;4.60;1.83;;;23.80;46.30;;;;;;5088961;28;20940;-70
2021/07/22 11:54:17;;;;;;;3.55;1.42;;;23.80;46.30;;;;;;5070916;28;20048;-70
2021/07/22 11:56:45;;;;;;;1.38;0.90;;;23.80;46.70;;;;;;5074029;28;20046;-69
2021/07/22 11:59:12;;;;;;;2.55;1.00;;;23.70;46.30;;;;;;5060151;28;20032;-70
2021/07/22 12:01:49;;;;;;;3.42;1.27;;;23.70;46.40;;;;;;5058117;28;20047;-70
2021/07/22 12:04:32;;;;;;;4.15;1.15;;;23.50;46.70;;;;;;5074582;28;20031;-70
2021/07/22 12:07:03;;;;;;;2.08;1.45;;;23.50;46.80;;;;;;5075475;28;20041;-69
2021/07/22 12:09:29;;;;;;;1.63;0.80;;;23.30;47.90;;;;;;5058129;28;20040;-69
2021/07/22 12:11:58;;;;;;;4.72;1.42;;;23.40;48.00;;;;;;5043415;28;20040;-69
2021/07/22 12:14:24;;;;;;;25.27;16.30;;;23.40;48.10;;;;;;5074664;28;20041;-70
2021/07/22 12:16:50;;;;;;;21.35;15.70;;;23.50;47.90;;;;;;5077479;28;20176;-69
2021/07/22 12:19:15;;;;;;;5.53;2.78;;;23.60;47.70;;;;;;5076501;28;20407;-69
2021/07/22 12:21:41;;;;;;;10.43;2.20;;;23.70;47.80;;;;;;5063282;28;20068;-69
2021/07/22 12:24:18;;;;;;;6.15;2.05;;;23.80;47.70;;;;;;5076509;28;20032;-69
2021/07/22 12:26:44;;;;;;;4.40;1.92;;;23.80;47.20;;;;;;5077874;28;20038;-69
2021/07/22 12:29:10;;;;;;;3.15;1.90;;;23.70;47.50;;;;;;5075264;28;20392;-69
2021/07/22 12:31:38;;;;;;;3.95;1.42;;;23.70;47.40;;;;;;5074574;28;20047;-69
2021/07/22 12:34:07;;;;;;;3.85;1.67;;;23.80;47.40;;;;;;5076590;28;20441;-70
2021/07/22 12:36:34;;;;;;;5.07;2.05;;;23.80;47.30;;;;;;5074126;28;20491;-69
2021/07/22 12:39:13;;;;;;;2.13;1.20;;;23.80;47.80;;;;;;5041366;28;20069;-69
2021/07/22 12:41:39;;;;;;;1.77;1.00;;;23.80;47.40;;;;;;5073364;28;20044;-68
2021/07/22 12:44:05;;;;;;;3.80;1.13;;;23.80;47.20;;;;;;5083693;28;20035;-68
2021/07/22 12:46:32;;;;;;;1.55;0.95;;;23.90;46.90;;;;;;5087820;28;20633;-69
2021/07/22 12:48:58;;;;;;;3.75;1.10;;;23.90;47.10;;;;;;5087373;28;20050;-69